Time;durP1;ratioP1;P1;durP2;ratioP2;P2;SDS_P1;SDS_P2;PMS_P1;PMS_P2;Temp;Humidity;BMP_temperature;BMP_pressure;BME280_temperature;BME280_humidity;BME280_pressure;Samples;Min_cycle;Max_cycle;Signal;HPM_P1;HPM_P2
2022/11/23 00:01:37;;;;;;;;;40.00;31.00;;;;;4.17;100.00;98199.06;6272462;20;2500286;-55
2022/11/23 00:04:10;;;;;;;;;28.50;25.00;;;;;4.12;100.00;98196.69;6278238;20;2843006;-55
2022/11/23 00:06:40;;;;;;;;;8.50;8.50;;;;;4.03;100.00;98191.94;6297119;20;1822211;-58
2022/11/23 00:09:11;;;;;;;;;44.33;35.00;;;;;4.03;100.00;98197.25;6309226;20;3634703;-55
2022/11/23 00:11:39;;;;;;;;;20.00;15.00;;;;;4.07;100.00;98180.16;6312640;20;2817980;-55
2022/11/23 00:14:07;;;;;;;;;23.00;12.33;;;;;4.01;100.00;98177.03;6279493;20;3565867;-56
2022/11/23 00:16:36;;;;;;;;;14.67;10.67;;;;;4.10;100.00;98182.63;6309756;20;3508582;-55
2022/11/23 00:19:03;;;;;;;;;23.00;19.00;;;;;4.07;100.00;98188.13;6312549;20;2836688;-55
2022/11/23 00:21:32;;;;;;;;;14.00;13.50;;;;;4.01;100.00;98193.81;6279530;20;2502394;-56
2022/11/23 00:24:01;;;;;;;;;24.67;18.33;;;;;4.00;100.00;98181.47;6281467;20;3577408;-52
2022/11/23 00:26:29;;;;;;;;;26.00;18.50;;;;;3.98;100.00;98183.38;6277382;20;2500593;-58
2022/11/23 00:28:58;;;;;;;;;24.50;23.00;;;;;4.03;100.00;98183.09;6279946;20;2834674;-57
2022/11/23 00:31:26;;;;;;;;;32.50;29.00;;;;;4.07;100.00;98180.16;6280665;20;2861101;-56
2022/11/23 00:33:56;;;;;;;;;28.00;17.50;;;;;3.92;100.00;98171.31;6279485;20;2815970;-52
2022/11/23 00:36:27;;;;;;;;;25.50;20.00;;;;;4.00;100.00;98167.34;6275323;20;2500256;-54
2022/11/23 00:38:56;;;;;;;;;21.00;14.00;;;;;3.90;100.00;98164.41;6281278;20;2819024;-56
2022/11/23 00:41:27;;;;;;;;;21.67;15.00;;;;;3.85;100.00;98166.47;6283923;20;2808604;-58
2022/11/23 00:43:55;;;;;;;;;23.50;21.00;;;;;3.97;100.00;98165.72;6306858;20;2500299;-53
2022/11/23 00:46:26;;;;;;;;;25.00;22.00;;;;;3.98;100.00;98170.09;6279709;20;2835670;-53
2022/11/23 00:48:56;;;;;;;;;10.00;7.00;;;;;4.02;100.00;98168.97;6282855;20;2748408;-57
2022/11/23 00:51:31;;;;;;;;;27.50;25.00;;;;;4.07;100.00;98164.22;6278586;20;2494026;-52
2022/11/23 00:54:02;;;;;;;;;24.00;20.00;;;;;4.09;100.00;98165.00;6280226;20;2850349;-52
2022/11/23 00:56:33;;;;;;;;;26.50;23.50;;;;;4.02;100.00;98153.03;6278479;20;2822219;-54
2022/11/23 00:59:02;;;;;;;;;22.50;14.50;;;;;3.95;100.00;98159.66;6280756;20;2799808;-53
2022/11/23 01:01:35;;;;;;;;;19.33;14.00;;;;;3.90;100.00;98159.09;6276747;20;3538860;-55
2022/11/23 01:04:07;;;;;;;;;14.50;7.00;;;;;3.98;100.00;98156.81;6310972;20;2754588;-55
2022/11/23 01:06:38;;;;;;;;;12.00;6.50;;;;;3.89;100.00;98163.50;6280761;20;2774236;-55
2022/11/23 01:09:16;;;;;;;;;15.00;15.00;;;;;3.90;100.00;98153.78;6274980;20;2803478;-54
2022/11/23 01:11:45;;;;;;;;;13.50;9.00;;;;;3.87;100.00;98153.94;6313572;20;2771124;-56
2022/11/23 01:14:12;;;;;;;;;26.00;22.50;;;;;3.88;100.00;98153.00;6276045;20;2494089;-56
2022/11/23 01:16:42;;;;;;;;;13.00;10.50;;;;;3.93;100.00;98153.59;6278055;20;2771179;-56
2022/11/23 01:19:19;;;;;;;;;4.50;4.50;;;;;4.04;100.00;98155.59;6280416;20;2748188;-55
2022/11/23 01:21:50;;;;;;;;;22.83;18.17;;;;;3.96;100.00;98153.41;6337933;20;2844060;-56
2022/11/23 01:24:21;;;;;;;;;23.33;18.67;;;;;4.00;100.00;98143.44;6312266;20;3566891;-54
2022/11/23 01:26:54;;;;;;;;;33.00;27.00;;;;;4.06;100.00;98146.59;6283055;20;2500675;-53
2022/11/23 01:29:24;;;;;;;;;14.33;12.00;;;;;3.99;100.00;98144.41;6280708;20;3528825;-53
2022/11/23 01:31:52;;;;;;;;;15.00;13.00;;;;;4.05;100.00;98141.38;6309941;20;2793059;-50
2022/11/23 01:34:20;;;;;;;;;28.67;19.00;;;;;3.91;100.00;98151.00;6286233;20;3581532;-53
2022/11/23 01:36:48;;;;;;;;;12.50;9.00;;;;;3.91;100.00;98144.84;6313319;20;2769895;-52
2022/11/23 01:39:17;;;;;;;;;21.67;21.00;;;;;3.90;100.00;98144.00;6284921;20;3561813;-58
2022/11/23 01:41:46;;;;;;;;;18.33;14.33;;;;;3.90;100.00;98145.81;6284895;20;3551297;-54
2022/11/23 01:44:42;;;;;;;;;26.00;21.50;;;;;3.93;100.00;98148.28;6284200;20;2662785;-55
2022/11/23 01:47:11;;;;;;;;;19.67;17.67;;;;;4.07;100.00;98144.78;6277852;20;3555654;-52
2022/11/23 01:49:50;;;;;;;;;16.00;12.50;;;;;3.89;100.00;98155.56;6318305;20;2788830;-53
2022/11/23 01:52:26;;;;;;;;;16.33;12.67;;;;;3.88;100.00;98145.03;6284021;20;2800333;-58
2022/11/23 01:54:57;;;;;;;;;22.50;16.50;;;;;3.92;100.00;98141.25;6313916;20;2827361;-53
2022/11/23 01:57:36;;;;;;;;;22.50;17.50;;;;;3.97;100.00;98144.47;6285088;20;2833738;-54
2022/11/23 02:00:05;;;;;;;;;20.00;12.00;;;;;3.88;100.00;98140.56;6282366;20;2821084;-56
2022/11/23 02:02:35;;;;;;;;;12.50;12.50;;;;;3.86;100.00;98126.53;6286610;20;2791995;-55
2022/11/23 02:05:05;;;;;;;;;23.50;19.50;;;;;3.95;100.00;98131.31;6281664;20;2833106;-54
2022/11/23 02:07:34;;;;;;;;;14.00;13.00;;;;;3.98;100.00;98135.59;6280329;20;2795130;-55
2022/11/23 02:10:03;;;;;;;;;15.33;14.00;;;;;4.06;100.00;98137.78;6282496;20;2805619;-53
2022/11/23 02:12:31;;;;;;;;;17.50;8.50;;;;;3.94;100.00;98128.72;6315452;20;2785704;-56
2022/11/23 02:14:59;;;;;;;;;10.00;9.00;;;;;4.06;100.00;98143.94;6301388;20;1811621;-54
2022/11/23 02:17:27;;;;;;;;;15.00;13.00;;;;;3.94;100.00;98139.34;6312159;20;2789958;-55
2022/11/23 02:20:10;;;;;;;;;14.00;14.00;;;;;4.01;100.00;98153.97;6282949;20;3525217;-55
2022/11/23 02:22:49;;;;;;;;;4.67;4.67;;;;;3.87;100.00;98138.88;6310920;20;3459751;-57
2022/11/23 02:26:03;;;;;;;;;15.67;13.67;;;;;3.86;100.00;98154.88;6283511;20;3524220;-55
2022/11/23 02:28:53;;;;;;;;;18.50;14.00;;;;;3.89;100.00;98136.13;6312480;20;2807409;-57
2022/11/23 02:31:21;;;;;;;;;18.00;14.00;;;;;3.96;100.00;98126.84;6281571;20;2815017;-53
2022/11/23 02:33:50;;;;;;;;;8.50;3.50;;;;;3.84;100.00;98130.22;6297686;20;1815999;-57
2022/11/23 02:36:43;;;;;;;;;7.00;7.00;;;;;3.81;100.00;98133.91;6316690;20;2740904;-56
2022/11/23 02:39:36;;;;;;;;;14.00;8.50;;;;;3.79;100.00;98129.63;6282055;20;2762817;-54
2022/11/23 02:42:06;;;;;;;;;10.00;10.00;;;;;3.70;100.00;98125.75;6298504;20;1813899;-55
2022/11/23 02:45:07;;;;;;;;;13.00;10.00;;;;;3.67;100.00;98136.53;6313173;20;2772225;-54
2022/11/23 02:47:36;;;;;;;;;16.00;14.67;;;;;3.71;100.00;98130.09;6275717;20;3540006;-58
2022/11/23 02:50:04;;;;;;;;;13.00;8.00;;;;;3.62;100.00;98143.91;6278273;20;2773201;-54
2022/11/23 02:52:32;;;;;;;;;6.00;2.67;;;;;3.59;100.00;98139.63;6286384;20;3463858;-55
2022/11/23 02:55:00;;;;;;;;;15.25;10.00;;;;;3.62;100.00;98133.28;6330435;20;1812807;-55
2022/11/23 02:57:28;;;;;;;;;16.50;13.00;;;;;3.58;100.00;98126.44;6313664;20;2800279;-55
2022/11/23 02:59:57;;;;;;;;;17.00;13.67;;;;;3.55;100.00;98119.50;6279837;20;2795107;-55
2022/11/23 03:02:24;;;;;;;;;10.00;6.00;;;;;3.56;100.00;98118.59;6315039;20;2758584;-54
2022/11/23 03:04:52;;;;;;;;;11.50;7.50;;;;;3.58;100.00;98111.41;6286400;20;2768121;-56
2022/11/23 03:07:20;;;;;;;;;11.00;9.00;;;;;3.50;100.00;98117.16;6315109;20;2775277;-58
2022/11/23 03:09:50;;;;;;;;;9.83;7.33;;;;;3.51;100.00;98116.19;6320957;20;1817094;-53
2022/11/23 03:12:18;;;;;;;;;11.50;6.50;;;;;3.47;100.00;98097.88;6279535;20;2765928;-54
2022/11/23 03:14:49;;;;;;;;;14.43;12.71;;;;;3.61;100.00;98113.88;6315283;20;1811871;-55
2022/11/23 03:17:18;;;;;;;;;11.25;5.75;;;;;3.57;100.00;98104.38;6323499;20;1845199;-54
2022/11/23 03:19:45;;;;;;;;;22.50;17.00;;;;;3.57;100.00;98098.22;6312593;20;2838814;-53
2022/11/23 03:22:14;;;;;;;;;17.67;15.67;;;;;3.61;100.00;98097.94;6280246;20;3558597;-53
2022/11/23 03:24:42;;;;;;;;;14.00;12.50;;;;;3.55;100.00;98106.25;6315007;20;2799343;-54
2022/11/23 03:27:13;;;;;;;;;11.00;7.29;;;;;3.55;100.00;98103.59;6324452;20;1804597;-52
2022/11/23 03:29:41;;;;;;;;;19.50;16.50;;;;;3.53;100.00;98113.47;6315860;20;2826370;-55
2022/11/23 03:32:08;;;;;;;;;7.00;7.00;;;;;3.54;100.00;98080.66;6282537;20;3450266;-55
2022/11/23 03:34:36;;;;;;;;;17.00;16.50;;;;;3.53;100.00;98092.25;6313566;20;2822201;-57
2022/11/23 03:37:04;;;;;;;;;12.25;12.00;;;;;3.52;100.00;98093.16;6295909;20;1815927;-55
2022/11/23 03:39:32;;;;;;;;;8.00;8.00;;;;;3.49;100.00;98102.16;6313353;20;2747304;-53
2022/11/23 03:42:03;;;;;;;;;18.20;10.80;;;;;3.44;100.00;98098.06;6304392;20;2789932;-55
2022/11/23 03:44:32;;;;;;;;;12.40;11.40;;;;;3.58;100.00;98103.44;6308085;20;2786847;-56
2022/11/23 03:47:01;;;;;;;;;12.75;7.00;;;;;3.62;100.00;98094.34;6297409;20;1808674;-53
2022/11/23 03:49:29;;;;;;;;;19.00;16.00;;;;;3.45;100.00;98099.75;6313324;20;2813834;-57
2022/11/23 03:51:58;;;;;;;;;8.25;6.50;;;;;3.54;100.00;98093.94;6302498;20;1821260;-57
2022/11/23 03:54:26;;;;;;;;;12.75;8.00;;;;;3.49;100.00;98091.53;6331667;20;1816824;-58
2022/11/23 03:56:55;;;;;;;;;26.67;25.33;;;;;3.47;100.00;98103.19;6309123;20;3581605;-58
2022/11/23 03:59:24;;;;;;;;;15.20;13.20;;;;;3.44;100.00;98103.38;6299214;20;2792977;-53
2022/11/23 04:01:53;;;;;;;;;15.67;8.33;;;;;3.57;100.00;98099.06;6279964;20;2783857;-54
2022/11/23 04:04:20;;;;;;;;;14.50;12.50;;;;;3.55;100.00;98095.63;6313879;20;2801368;-56
2022/11/23 04:06:49;;;;;;;;;36.00;31.00;;;;;3.54;100.00;98109.84;6278832;20;2846172;-55
2022/11/23 04:09:17;;;;;;;;;15.50;12.00;;;;;3.55;100.00;98098.28;6281660;20;2796158;-57
2022/11/23 04:11:44;;;;;;;;;10.00;8.50;;;;;3.50;100.00;98103.00;6280809;20;2759012;-54
2022/11/23 04:14:12;;;;;;;;;15.00;12.00;;;;;3.52;100.00;98095.81;6279592;20;2797265;-58
2022/11/23 04:16:40;;;;;;;;;25.00;18.00;;;;;3.61;100.00;98097.94;6278642;20;2500433;-57
2022/11/23 04:19:09;;;;;;;;;26.67;16.67;;;;;3.62;100.00;98115.56;6279652;20;3587744;-56
2022/11/23 04:21:36;;;;;;;;;12.00;12.00;;;;;3.59;100.00;98122.88;6280665;20;2779505;-55
2022/11/23 04:24:05;;;;;;;;;29.00;25.50;;;;;3.60;100.00;98127.22;6279752;20;2844549;-54
2022/11/23 04:26:34;;;;;;;;;46.67;35.33;;;;;3.62;100.00;98138.59;6271879;20;2875347;-56
2022/11/23 04:29:03;;;;;;;;;43.67;34.00;;;;;3.56;100.00;98134.50;6309371;20;3611779;-57
2022/11/23 04:31:32;;;;;;;;;13.00;11.67;;;;;3.53;100.00;98132.03;6307204;20;2793048;-55
2022/11/23 04:34:01;;;;;;;;;34.00;28.50;;;;;3.62;100.00;98128.84;6308780;20;2855621;-56
2022/11/23 04:36:29;;;;;;;;;32.50;24.50;;;;;3.63;100.00;98141.16;6278309;20;2500242;-56
2022/11/23 04:38:57;;;;;;;;;17.00;13.33;;;;;3.61;100.00;98148.38;6277523;20;3530462;-56
2022/11/23 04:41:26;;;;;;;;;27.67;20.67;;;;;3.64;100.00;98150.84;6310454;20;3572185;-56
2022/11/23 04:43:55;;;;;;;;;35.50;31.00;;;;;3.56;100.00;98153.09;6279036;20;2849258;-55
2022/11/23 04:46:24;;;;;;;;;20.00;18.00;;;;;3.43;100.00;98144.97;6278598;20;2817985;-57
2022/11/23 04:48:52;;;;;;;;;29.00;24.00;;;;;3.63;100.00;98143.81;6280835;20;2842083;-56
2022/11/23 04:51:20;;;;;;;;;41.00;36.00;;;;;3.72;100.00;98139.78;6276097;20;2867354;-55
2022/11/23 04:53:49;;;;;;;;;19.00;11.33;;;;;3.49;100.00;98130.50;6272340;20;2801390;-52
2022/11/23 04:56:16;;;;;;;;;27.50;21.00;;;;;3.51;100.00;98136.56;6314315;20;2846101;-54
2022/11/23 04:58:44;;;;;;;;;12.00;8.50;;;;;3.51;100.00;98123.31;6286372;20;2772273;-58
2022/11/23 05:01:12;;;;;;;;;16.50;16.50;;;;;3.50;100.00;98119.81;6286382;20;2808657;-54
2022/11/23 05:03:39;;;;;;;;;26.00;19.00;;;;;3.59;100.00;98117.56;6288735;20;2833598;-56
2022/11/23 05:06:09;;;;;;;;;16.00;12.00;;;;;3.58;100.00;98115.84;6287062;20;2779473;-56
2022/11/23 05:08:37;;;;;;;;;15.67;14.00;;;;;3.56;100.00;98118.59;6286942;20;3531501;-57
2022/11/23 05:11:05;;;;;;;;;14.00;13.00;;;;;3.49;100.00;98118.09;6320426;20;2789948;-55
2022/11/23 05:13:33;;;;;;;;;8.50;8.50;;;;;3.46;100.00;98118.25;6286890;20;2748306;-56
2022/11/23 05:16:01;;;;;;;;;16.50;12.50;;;;;3.45;100.00;98115.69;6314667;20;2805556;-57
2022/11/23 05:18:29;;;;;;;;;13.00;12.00;;;;;3.40;100.00;98123.94;6286521;20;2798187;-58
2022/11/23 05:20:56;;;;;;;;;6.50;6.50;;;;;3.37;100.00;98117.94;6285424;20;2746247;-56
2022/11/23 05:23:24;;;;;;;;;15.00;12.50;;;;;3.39;100.00;98106.28;6314780;20;2784875;-53
2022/11/23 05:25:52;;;;;;;;;13.00;9.00;;;;;3.40;100.00;98102.72;6282847;20;2750321;-55
2022/11/23 05:28:21;;;;;;;;;4.33;2.67;;;;;3.39;100.00;98110.75;6286321;20;3461701;-58
2022/11/23 05:31:08;;;;;;;;;12.67;11.00;;;;;3.38;100.00;98109.03;6310287;20;2779514;-56
2022/11/23 05:33:38;;;;;;;;;45.67;36.33;;;;;3.36;100.00;98122.38;6314900;20;2855522;-58
2022/11/23 05:36:12;;;;;;;;;10.00;5.50;;;;;3.36;100.00;98126.84;6358221;20;1801444;-55
2022/11/23 05:38:44;;;;;;;;;12.29;8.29;;;;;3.36;100.00;98121.53;6325218;20;1801349;-55
2022/11/23 05:41:11;;;;;;;;;8.00;4.00;;;;;3.38;100.00;98120.50;6316171;20;2750705;-57
2022/11/23 05:43:39;;;;;;;;;12.00;12.00;;;;;3.38;100.00;98119.66;6281629;20;2801415;-59
2022/11/23 05:46:08;;;;;;;;;23.33;18.00;;;;;3.32;100.00;98114.69;6285774;20;3559616;-58
2022/11/23 05:48:36;;;;;;;;;21.00;17.00;;;;;3.40;100.00;98123.94;6309679;20;3554443;-58
2022/11/23 05:51:04;;;;;;;;;6.00;6.00;;;;;3.44;100.00;98119.28;6283481;20;3465992;-58
2022/11/23 05:53:33;;;;;;;;;31.00;28.50;;;;;3.58;100.00;98126.44;6282626;20;2842005;-57
2022/11/23 05:56:03;;;;;;;;;15.20;14.00;;;;;3.52;100.00;98135.63;6306649;20;2810708;-57
2022/11/23 05:58:31;;;;;;;;;4.00;3.25;;;;;3.46;100.00;98136.84;6304376;20;1816977;-59
2022/11/23 06:01:01;;;;;;;;;15.00;11.33;;;;;3.46;100.00;98150.09;6309580;20;3514941;-57
2022/11/23 06:03:29;;;;;;;;;18.67;14.33;;;;;3.33;100.00;98129.69;6312865;20;3554387;-56
2022/11/23 06:05:58;;;;;;;;;18.67;18.00;;;;;3.55;100.00;98116.00;6310153;20;3554529;-56
2022/11/23 06:08:26;;;;;;;;;11.00;11.00;;;;;3.55;100.00;98121.31;6284781;20;2788830;-58
2022/11/23 06:10:53;;;;;;;;;19.00;14.00;;;;;3.51;100.00;98121.50;6281577;20;2794400;-58
2022/11/23 06:13:21;;;;;;;;;6.00;4.00;;;;;3.51;100.00;98131.28;6286073;20;3454506;-57
2022/11/23 06:15:50;;;;;;;;;9.00;7.40;;;;;3.52;100.00;98127.66;6339280;20;2743173;-56
2022/11/23 06:18:19;;;;;;;;;11.67;11.33;;;;;3.50;100.00;98126.88;6310387;20;2794401;-58
2022/11/23 06:20:47;;;;;;;;;16.00;11.50;;;;;3.47;100.00;98129.72;6313496;20;2797283;-57
2022/11/23 06:23:14;;;;;;;;;11.50;10.50;;;;;3.47;100.00;98135.88;6283338;20;2785725;-58
2022/11/23 06:25:42;;;;;;;;;22.00;17.50;;;;;3.51;100.00;98137.44;6284085;20;2835766;-56
2022/11/23 06:28:11;;;;;;;;;16.67;11.33;;;;;3.41;100.00;98135.38;6281876;20;3514876;-55
2022/11/23 06:30:38;;;;;;;;;6.00;4.50;;;;;3.41;100.00;98143.34;6309975;20;2747138;-57
2022/11/23 06:33:06;;;;;;;;;16.00;15.00;;;;;3.54;100.00;98148.81;6310456;20;2816942;-56
2022/11/23 06:35:34;;;;;;;;;11.00;8.00;;;;;3.55;100.00;98132.78;6284046;20;2765921;-57
2022/11/23 06:38:04;;;;;;;;;13.17;8.50;;;;;3.57;100.00;98138.88;6324486;20;1812851;-55
2022/11/23 06:40:33;;;;;;;;;17.50;17.00;;;;;3.63;100.00;98145.59;6279847;20;2814955;-57
2022/11/23 06:43:02;;;;;;;;;5.00;2.50;;;;;3.54;100.00;98140.84;6301780;20;1831551;-57
2022/11/23 06:45:30;;;;;;;;;11.50;11.50;;;;;3.60;100.00;98151.09;6314613;20;2786726;-58
2022/11/23 06:47:58;;;;;;;;;18.67;13.67;;;;;3.70;100.00;98155.78;6280434;20;2814913;-58
2022/11/23 06:50:27;;;;;;;;;23.67;22.67;;;;;3.73;100.00;98154.75;6314151;20;3570055;-55
2022/11/23 06:52:57;;;;;;;;;19.20;13.20;;;;;3.66;100.00;98156.03;6307469;20;2796202;-58
2022/11/23 06:55:28;;;;;;;;;9.17;8.00;;;;;3.65;100.00;98155.19;6325388;20;1823235;-57
2022/11/23 06:57:59;;;;;;;;;9.86;9.86;;;;;3.60;100.00;98157.25;6327053;20;1804609;-57
2022/11/23 07:00:26;;;;;;;;;9.00;2.67;;;;;3.54;100.00;98165.59;6313375;20;3472128;-57
2022/11/23 07:02:55;;;;;;;;;22.50;18.50;;;;;3.73;100.00;98166.22;6276958;20;2491963;-58
2022/11/23 07:05:24;;;;;;;;;10.50;7.50;;;;;3.61;100.00;98158.97;6297640;20;1823254;-57
2022/11/23 07:07:52;;;;;;;;;13.00;13.00;;;;;3.69;100.00;98177.97;6313130;20;2785709;-58
2022/11/23 07:10:21;;;;;;;;;21.00;18.00;;;;;3.72;100.00;98175.13;6283007;20;2814861;-57
2022/11/23 07:12:49;;;;;;;;;18.33;13.00;;;;;3.77;100.00;98182.84;6282483;20;2802329;-58
2022/11/23 07:15:18;;;;;;;;;20.00;19.00;;;;;3.84;100.00;98191.28;6313335;20;3554554;-58
2022/11/23 07:17:47;;;;;;;;;19.00;18.33;;;;;3.80;100.00;98180.00;6280915;20;3564842;-57
2022/11/23 07:20:16;;;;;;;;;14.67;12.00;;;;;4.04;100.00;98182.16;6309834;20;2786804;-58
2022/11/23 07:22:43;;;;;;;;;21.50;15.00;;;;;3.91;100.00;98185.53;6314136;20;2487763;-58
2022/11/23 07:25:15;;;;;;;;;15.50;13.00;;;;;3.83;100.00;98184.28;6280924;20;2794125;-58
2022/11/23 07:27:43;;;;;;;;;3.00;3.00;;;;;4.00;100.00;98181.47;6284907;20;3449336;-57
2022/11/23 07:30:13;;;;;;;;;17.60;15.20;;;;;4.09;100.00;98186.25;6334476;20;2829477;-58
2022/11/23 07:32:42;;;;;;;;;8.25;7.75;;;;;3.99;100.00;98190.38;6299255;20;1813904;-58
2022/11/23 07:35:11;;;;;;;;;17.00;15.00;;;;;4.04;100.00;98188.31;6306375;20;2810663;-59
2022/11/23 07:37:39;;;;;;;;;10.50;2.50;;;;;4.01;100.00;98180.53;6280448;20;2502341;-57
2022/11/23 07:40:08;;;;;;;;;15.00;14.00;;;;;4.09;100.00;98175.63;6281078;20;2788826;-58
2022/11/23 07:42:36;;;;;;;;;13.00;11.00;;;;;4.07;100.00;98174.84;6282835;20;2787785;-58
2022/11/23 07:45:13;;;;;;;;;16.40;13.00;;;;;4.16;100.00;98171.66;6303815;20;2804480;-58
2022/11/23 07:47:41;;;;;;;;;7.00;6.00;;;;;4.21;100.00;98182.00;6296583;20;1824916;-57
2022/11/23 07:50:12;;;;;;;;;18.67;16.33;;;;;4.09;100.00;98191.56;6310494;20;3535669;-58
2022/11/23 07:52:43;;;;;;;;;11.14;7.14;;;;;4.22;100.00;98194.34;6355119;20;1808665;-58
2022/11/23 07:55:12;;;;;;;;;17.33;13.67;;;;;4.26;100.00;98189.69;6309101;20;3524300;-57
2022/11/23 07:57:40;;;;;;;;;9.50;6.75;;;;;4.23;100.00;98176.59;6327546;20;1817029;-54
2022/11/23 08:00:11;;;;;;;;;19.00;15.33;;;;;4.21;100.00;98179.34;6308889;20;3552338;-58
2022/11/23 08:02:39;;;;;;;;;14.50;11.50;;;;;4.43;100.00;98178.91;6309846;20;2788828;-58
2022/11/23 08:05:30;;;;;;;;;8.00;7.00;;;;;4.36;100.00;98173.09;6300189;20;1816993;-57
2022/11/23 08:08:01;;;;;;;;;12.67;12.67;;;;;4.50;100.00;98179.38;6309244;20;2817036;-58
2022/11/23 08:10:32;;;;;;;;;22.20;15.00;;;;;4.58;100.00;98175.31;6336108;20;2828408;-58
2022/11/23 08:13:05;;;;;;;;;9.33;7.67;;;;;4.56;100.00;98174.56;6277145;20;3456585;-58
2022/11/23 08:15:35;;;;;;;;;14.67;13.00;;;;;4.68;100.00;98180.06;6279359;20;2807971;-58
2022/11/23 08:18:04;;;;;;;;;34.50;31.50;;;;;4.81;100.00;98183.66;6311797;20;2858651;-58
2022/11/23 08:20:32;;;;;;;;;8.50;7.00;;;;;4.65;100.00;98172.28;6280787;20;2741968;-58
2022/11/23 08:23:01;;;;;;;;;18.33;14.67;;;;;4.64;100.00;98171.44;6313484;20;3536826;-58
2022/11/23 08:25:30;;;;;;;;;10.00;10.00;;;;;4.56;100.00;98174.56;6310777;20;2764830;-59
2022/11/23 08:28:02;;;;;;;;;3.67;2.67;;;;;4.53;100.00;98168.56;6280450;20;3454425;-58
2022/11/23 08:30:33;;;;;;;;;57.83;44.00;;;;;4.45;100.00;98171.72;6331546;20;3615905;-59
2022/11/23 08:33:07;;;;;;;;;9.86;9.71;;;;;4.50;100.00;98174.06;6321342;20;1808690;-58
2022/11/23 08:35:38;;;;;;;;;3.75;2.00;;;;;4.44;100.00;98175.28;6335042;20;1814658;-59
2022/11/23 08:38:09;;;;;;;;;15.33;15.33;;;;;4.52;100.00;98178.34;6310502;20;3540868;-58
2022/11/23 08:40:38;;;;;;;;;6.00;3.50;;;;;4.54;100.00;98181.75;6329566;20;1808719;-58
2022/11/23 08:43:07;;;;;;;;;15.20;13.60;;;;;4.55;100.00;98188.78;6337443;20;2794040;-57
2022/11/23 08:45:35;;;;;;;;;12.00;12.00;;;;;4.64;100.00;98191.84;6282625;20;2796385;-58
2022/11/23 08:48:05;;;;;;;;;7.75;6.75;;;;;4.89;100.00;98185.84;6300758;20;1812830;-58
2022/11/23 08:50:34;;;;;;;;;19.00;15.00;;;;;4.97;100.00;98189.72;6309664;20;2808650;-59
2022/11/23 08:53:05;;;;;;;;;13.14;9.14;;;;;4.67;100.00;98189.84;6354736;20;1809300;-58
2022/11/23 08:55:34;;;;;;;;;3.00;1.25;;;;;4.71;100.00;98183.38;6332752;20;1809650;-58
2022/11/23 08:58:03;;;;;;;;;9.20;7.20;;;;;4.79;100.00;98190.88;6336950;20;2761735;-58
2022/11/23 09:00:39;;;;;;;;;7.50;6.75;;;;;4.83;100.00;98187.09;6332013;20;1821239;-59
2022/11/23 09:03:06;;;;;;;;;8.50;8.50;;;;;4.90;100.00;98190.19;6315482;20;2736106;-59
2022/11/23 09:05:38;;;;;;;;;6.50;3.00;;;;;4.75;100.00;98184.06;6334218;20;1813926;-59
2022/11/23 09:08:07;;;;;;;;;15.80;11.80;;;;;4.78;100.00;98187.38;6336509;20;3528382;-59
2022/11/23 09:10:37;;;;;;;;;5.50;2.50;;;;;4.92;100.00;98193.63;6302267;20;1813887;-59
2022/11/23 09:13:05;;;;;;;;;16.33;14.00;;;;;4.66;100.00;98190.81;6311954;20;3543080;-59
2022/11/23 09:15:35;;;;;;;;;7.25;6.50;;;;;4.82;100.00;98186.22;6329389;20;1819082;-59
2022/11/23 09:18:05;;;;;;;;;9.33;7.33;;;;;4.78;100.00;98189.19;6354548;20;1810651;-58
2022/11/23 09:20:35;;;;;;;;;16.20;13.80;;;;;4.75;100.00;98184.91;6306120;20;2811767;-57
2022/11/23 09:23:03;;;;;;;;;9.25;9.00;;;;;4.97;100.00;98183.56;6301464;20;1810732;-58
2022/11/23 09:25:40;;;;;;;;;18.67;17.67;;;;;4.97;100.00;98179.06;6309510;20;3556470;-58
2022/11/23 09:28:11;;;;;;;;;8.75;7.25;;;;;4.94;100.00;98189.06;6330463;20;1808692;-59
2022/11/23 09:30:40;;;;;;;;;9.00;7.00;;;;;4.96;100.00;98189.84;6314052;20;2743983;-59
2022/11/23 09:33:09;;;;;;;;;16.00;14.20;;;;;5.12;100.00;98176.41;6302291;20;2795051;-58
2022/11/23 09:35:37;;;;;;;;;25.00;19.50;;;;;4.98;100.00;98180.81;6281646;20;2847326;-59
2022/11/23 09:38:10;;;;;;;;;15.50;14.50;;;;;5.18;100.00;98178.69;6282185;20;2804525;-58
2022/11/23 09:40:40;;;;;;;;;27.00;24.50;;;;;5.38;100.00;98178.25;6276649;20;2494087;-59
2022/11/23 09:43:41;;;;;;;;;21.50;19.00;;;;;5.59;100.00;98173.34;6285857;20;2827354;-59
2022/11/23 09:46:56;;;;;;;;;13.50;13.00;;;;;5.75;100.00;98165.19;6288730;20;2790331;-59
2022/11/23 09:50:02;;;;;;;;;12.00;9.00;;;;;5.65;100.00;98174.75;6283804;20;2768073;-59
2022/11/23 09:52:30;;;;;;;;;12.00;7.50;;;;;5.66;100.00;98181.75;6284504;20;2758604;-59
2022/11/23 09:55:18;;;;;;;;;12.00;7.00;;;;;5.54;100.00;98182.59;6283475;20;2756559;-59
2022/11/23 09:57:48;;;;;;;;;8.00;6.50;;;;;5.43;100.00;98180.63;6290532;20;2753640;-58
2022/11/23 10:00:22;;;;;;;;;4.00;2.50;;;;;5.55;100.00;98174.47;6316963;20;2751368;-59
2022/11/23 10:02:50;;;;;;;;;17.67;14.67;;;;;5.67;100.00;98179.00;6283781;20;3530593;-58
2022/11/23 10:05:25;;;;;;;;;13.50;8.50;;;;;5.62;100.00;98174.94;6315817;20;2760746;-59
2022/11/23 10:08:29;;;;;;;;;8.50;8.50;;;;;5.81;100.00;98170.09;6322189;20;2468961;-59
2022/11/23 10:11:41;;;;;;;;;9.50;8.25;;;;;5.84;100.00;98172.56;6304975;20;1821261;-59
2022/11/23 10:15:04;;;;;;;;;9.00;6.25;;;;;5.64;100.00;98170.38;6333361;20;1816987;-59
2022/11/23 10:17:59;;;;;;;;;12.67;10.67;;;;;5.83;100.00;98162.88;6312035;20;2794431;-59
2022/11/23 10:20:46;;;;;;;;;56.00;44.33;;;;;5.88;100.00;98163.41;6314345;20;3617983;-59
2022/11/23 10:23:48;;;;;;;;;13.00;13.00;;;;;5.65;100.00;98158.78;6322309;20;2796076;-60
2022/11/23 10:26:20;;;;;;;;;10.00;10.00;;;;;5.93;100.00;98166.66;6287678;20;2798256;-59
2022/11/23 10:28:49;;;;;;;;;9.00;9.00;;;;;5.83;100.00;98162.88;6284569;20;2753141;-58
2022/11/23 10:31:24;;;;;;;;;13.50;8.50;;;;;5.77;100.00;98168.63;6283855;20;2762893;-60
2022/11/23 10:34:13;;;;;;;;;10.00;8.50;;;;;5.76;100.00;98166.88;6279297;20;2763915;-60
2022/11/23 10:36:41;;;;;;;;;14.00;11.00;;;;;5.71;100.00;98159.22;6283910;20;2790885;-59
2022/11/23 10:39:25;;;;;;;;;10.00;10.00;;;;;5.67;100.00;98157.72;6283299;20;2775230;-59
2022/11/23 10:42:11;;;;;;;;;11.00;10.00;;;;;5.53;100.00;98163.09;6284691;20;2790895;-59
2022/11/23 10:44:41;;;;;;;;;5.50;5.50;;;;;5.78;100.00;98164.13;6284858;20;2748128;-59
2022/11/23 10:47:10;;;;;;;;;8.25;8.25;;;;;5.73;100.00;98164.44;6299541;20;1806709;-60
2022/11/23 10:49:38;;;;;;;;;9.00;9.00;;;;;5.68;100.00;98169.22;6318728;20;2764854;-59
2022/11/23 10:52:29;;;;;;;;;11.00;6.60;;;;;5.68;100.00;98166.53;6311062;20;2765976;-59
2022/11/23 10:55:04;;;;;;;;;6.50;2.75;;;;;5.77;100.00;98165.09;6300598;20;1809706;-59
2022/11/23 10:57:42;;;;;;;;;62.00;50.50;;;;;5.75;100.00;98165.19;6309669;20;2854473;-59
2022/11/23 11:00:15;;;;;;;;;12.00;12.00;;;;;5.71;100.00;98163.69;6280892;20;2795089;-59
2022/11/23 11:02:54;;;;;;;;;8.40;8.20;;;;;5.87;100.00;98169.72;6306605;20;2743006;-59
2022/11/23 11:05:48;;;;;;;;;14.50;11.00;;;;;6.06;100.00;98172.03;6321912;20;2794048;-60
2022/11/23 11:08:57;;;;;;;;;12.50;8.00;;;;;5.86;100.00;98157.34;6301462;20;1824340;-59
2022/11/23 11:11:36;;;;;;;;;80.00;59.75;;;;;5.85;100.00;98171.63;6315164;20;3638794;-59
2022/11/23 11:14:24;;;;;;;;;13.00;11.00;;;;;5.94;100.00;98176.34;6312969;20;2784652;-59
2022/11/23 11:16:59;;;;;;;;;16.50;14.50;;;;;5.90;100.00;98166.84;6283695;20;2805502;-60
2022/11/23 11:19:34;;;;;;;;;20.00;15.00;;;;;6.19;100.00;98177.38;6284384;20;2809686;-60
2022/11/23 11:22:36;;;;;;;;;12.67;12.67;;;;;6.18;100.00;98178.31;6282707;20;3525273;-59
2022/11/23 11:25:17;;;;;;;;;14.80;11.20;;;;;6.07;100.00;98179.03;6335783;20;2797198;-60
2022/11/23 11:27:51;;;;;;;;;14.67;10.00;;;;;6.01;100.00;98178.63;6278835;20;2782593;-59
2022/11/23 11:30:23;;;;;;;;;9.50;8.00;;;;;6.05;100.00;98180.09;6315155;20;2748240;-59